createdAt,value
2023-05-01T00:01:20.170Z,97596.16
2023-05-01T00:03:47.705Z,97594.28
2023-05-01T00:06:15.219Z,97599.03
2023-05-01T00:08:42.768Z,97586.34
2023-05-01T00:11:12.386Z,97588.41
2023-05-01T00:13:39.773Z,97583.78
2023-05-01T00:16:09.840Z,97575.69
2023-05-01T00:18:37.880Z,97578.19
2023-05-01T00:21:05.455Z,97570.91
2023-05-01T00:23:32.857Z,97572.56
2023-05-01T00:26:00.245Z,97575.69
2023-05-01T00:28:27.743Z,97560.69
2023-05-01T00:30:55.195Z,97571.72
2023-05-01T00:33:23.991Z,97565.66
2023-05-01T00:35:52.781Z,97558.59
2023-05-01T00:38:20.375Z,97553.56
2023-05-01T00:40:47.784Z,97551.69
2023-05-01T00:43:15.585Z,97549.00
2023-05-01T00:45:45.322Z,97536.72
2023-05-01T00:48:12.927Z,97543.16
2023-05-01T00:50:43.951Z,97543.16
2023-05-01T00:53:11.550Z,97534.59
2023-05-01T00:55:42.684Z,97537.75
2023-05-01T00:58:10.378Z,97531.69
2023-05-01T01:00:37.848Z,97528.59
2023-05-01T01:03:05.825Z,97523.59
2023-05-01T01:05:40.678Z,97524.59
2023-05-01T01:08:18.547Z,97516.25
2023-05-01T01:10:54.439Z,97513.97
2023-05-01T01:13:29.145Z,97511.66
2023-05-01T01:16:04.413Z,97502.28
2023-05-01T01:18:37.620Z,97501.66
2023-05-01T01:21:12.060Z,97504.97
2023-05-01T01:24:22.196Z,97498.53
2023-05-01T01:27:19.149Z,97490.25
2023-05-01T01:30:14.590Z,97489.81
2023-05-01T01:32:57.024Z,97501.72
2023-05-01T01:35:27.329Z,97496.09
2023-05-01T01:38:00.622Z,97499.84
2023-05-01T01:40:35.176Z,97490.91
2023-05-01T01:43:05.097Z,97495.28
2023-05-01T01:45:39.688Z,97492.16
2023-05-01T01:48:09.558Z,97493.19
2023-05-01T01:50:41.102Z,97487.75
2023-05-01T01:53:11.665Z,97496.25
2023-05-01T01:55:41.478Z,97487.13
2023-05-01T01:58:10.639Z,97480.88
2023-05-01T02:00:41.924Z,97480.88
2023-05-01T02:03:10.924Z,97487.13
2023-05-01T02:05:41.908Z,97481.09
2023-05-01T02:08:11.689Z,97475.88
2023-05-01T02:10:41.543Z,97479.84
2023-05-01T02:13:10.374Z,97477.97
2023-05-01T02:15:38.592Z,97468.84
2023-05-01T02:18:07.091Z,97465.47
2023-05-01T02:20:36.765Z,97468.19
2023-05-01T02:23:07.832Z,97465.28
2023-05-01T02:25:39.404Z,97466.75
2023-05-01T02:28:10.342Z,97467.56
2023-05-01T02:30:39.040Z,97464.88
2023-05-01T02:33:07.126Z,97463.19
2023-05-01T02:35:39.368Z,97461.78
2023-05-01T02:38:08.264Z,97457.22
2023-05-01T02:40:38.590Z,97457.00
2023-05-01T02:43:10.941Z,97445.59
2023-05-01T02:45:39.759Z,97440.97
2023-05-01T02:48:10.012Z,97437.06
2023-05-01T02:50:40.781Z,97439.13
2023-05-01T02:53:10.134Z,97444.97
2023-05-01T02:55:46.042Z,97435.59
2023-05-01T02:58:17.314Z,97437.91
2023-05-01T03:00:45.463Z,97430.63
2023-05-01T03:03:13.175Z,97432.91
2023-05-01T03:05:41.808Z,97434.59
2023-05-01T03:08:11.484Z,97434.16
2023-05-01T03:10:40.103Z,97437.91
2023-05-01T03:13:07.775Z,97437.91
2023-05-01T03:15:35.256Z,97436.84
2023-05-01T03:18:02.665Z,97440.81
2023-05-01T03:20:30.312Z,97436.44
2023-05-01T03:22:57.862Z,97430.41
2023-05-01T03:25:26.655Z,97430.84
2023-05-01T03:27:55.173Z,97431.47
2023-05-01T03:30:23.615Z,97426.69
2023-05-01T03:32:52.049Z,97420.44
2023-05-01T03:35:25.810Z,97429.22
2023-05-01T03:37:53.360Z,97427.31
2023-05-01T03:40:57.878Z,97426.50
2023-05-01T03:43:44.491Z,97425.47
2023-05-01T03:46:21.820Z,97425.06
2023-05-01T03:48:49.506Z,97425.06
2023-05-01T03:51:17.257Z,97428.63
2023-05-01T03:53:45.436Z,97421.28
2023-05-01T03:56:14.292Z,97418.59
2023-05-01T03:58:41.937Z,97421.09
2023-05-01T04:01:09.693Z,97424.00
2023-05-01T04:03:42.568Z,97425.69
2023-05-01T04:06:10.458Z,97424.22
2023-05-01T04:08:38.130Z,97422.16
2023-05-01T04:11:06.678Z,97420.91
2023-05-01T04:13:35.683Z,97415.50
2023-05-01T04:16:03.425Z,97422.16
2023-05-01T04:18:31.613Z,97418.19
2023-05-01T04:21:00.303Z,97423.22
2023-05-01T04:23:27.941Z,97419.69
2023-05-01T04:25:58.608Z,97424.25
2023-05-01T04:28:27.824Z,97415.97
2023-05-01T04:30:56.996Z,97415.53
2023-05-01T04:33:24.616Z,97417.00
2023-05-01T04:35:52.140Z,97411.16
2023-05-01T04:38:19.852Z,97415.13
2023-05-01T04:40:47.458Z,97419.50
2023-05-01T04:43:15.083Z,97415.75
2023-05-01T04:45:42.972Z,97422.66
2023-05-01T04:48:12.803Z,97421.78
2023-05-01T04:50:40.289Z,97418.88
2023-05-01T04:53:08.773Z,97425.78
2023-05-01T04:55:37.196Z,97414.50
2023-05-01T04:58:12.935Z,97424.09
2023-05-01T05:00:40.644Z,97429.28
2023-05-01T05:03:11.344Z,97417.03
2023-05-01T05:05:40.221Z,97426.38
2023-05-01T05:08:09.324Z,97429.31
2023-05-01T05:10:48.993Z,97433.44
2023-05-01T05:13:29.922Z,97431.19
2023-05-01T05:16:03.483Z,97428.28
2023-05-01T05:18:30.946Z,97425.53
2023-05-01T05:21:03.717Z,97431.78
2023-05-01T05:23:31.382Z,97431.97
2023-05-01T05:26:01.196Z,97420.50
2023-05-01T05:28:29.277Z,97427.59
2023-05-01T05:30:57.482Z,97426.31
2023-05-01T05:33:26.154Z,97427.34
2023-05-01T05:35:53.794Z,97427.34
2023-05-01T05:38:26.893Z,97426.50
2023-05-01T05:40:59.268Z,97427.72
2023-05-01T05:43:28.088Z,97417.91
2023-05-01T05:45:58.640Z,97419.56
2023-05-01T05:48:27.122Z,97426.22
2023-05-01T05:50:54.705Z,97438.91
2023-05-01T05:53:25.017Z,97434.31
2023-05-01T05:55:55.282Z,97428.81
2023-05-01T05:58:24.541Z,97423.59
2023-05-01T06:00:56.028Z,97431.69
2023-05-01T06:03:24.177Z,97423.53
2023-05-01T06:05:54.401Z,97418.28
2023-05-01T06:08:22.448Z,97423.47
2023-05-01T06:10:49.916Z,97422.56
2023-05-01T06:13:18.883Z,97417.38
2023-05-01T06:15:49.300Z,97421.06
2023-05-01T06:18:17.518Z,97423.38
2023-05-01T06:20:45.693Z,97409.16
2023-05-01T06:23:13.762Z,97413.94
2023-05-01T06:25:49.057Z,97417.91
2023-05-01T06:28:17.869Z,97423.75
2023-05-01T06:30:45.384Z,97424.78
2023-05-01T06:33:13.874Z,97430.69
2023-05-01T06:35:44.109Z,97426.28
2023-05-01T06:38:11.658Z,97431.56
2023-05-01T06:40:40.412Z,97435.31
2023-05-01T06:43:08.284Z,97427.16
2023-05-01T06:45:39.670Z,97443.03
2023-05-01T06:48:07.246Z,97443.78
2023-05-01T06:50:36.376Z,97436.50
2023-05-01T06:53:04.326Z,97436.50
2023-05-01T06:55:33.872Z,97437.78
2023-05-01T06:58:12.555Z,97444.47
2023-05-01T07:00:45.896Z,97446.31
2023-05-01T07:03:13.894Z,97453.22
2023-05-01T07:05:41.419Z,97452.97
2023-05-01T07:08:10.608Z,97450.09
2023-05-01T07:10:39.905Z,97450.94
2023-05-01T07:13:09.676Z,97457.22
2023-05-01T07:15:37.290Z,97451.59
2023-05-01T07:18:06.326Z,97452.63
2023-05-01T07:20:34.703Z,97458.47
2023-05-01T07:23:02.399Z,97456.13
2023-05-01T07:25:30.063Z,97452.78
2023-05-01T07:27:57.591Z,97462.22
2023-05-01T07:30:25.148Z,97453.63
2023-05-01T07:32:52.812Z,97450.09
2023-05-01T07:35:21.682Z,97452.97
2023-05-01T07:37:51.599Z,97451.16
2023-05-01T07:40:19.213Z,97459.47
2023-05-01T07:42:46.675Z,97461.56
2023-05-01T07:45:14.163Z,97457.81
2023-05-01T07:47:42.114Z,97453.16
2023-05-01T07:50:10.276Z,97451.50
2023-05-01T07:52:39.733Z,97461.97
2023-05-01T07:55:08.858Z,97459.00
2023-05-01T07:57:36.422Z,97453.09
2023-05-01T08:00:04.714Z,97452.84
2023-05-01T08:02:43.915Z,97454.28
2023-05-01T08:05:11.617Z,97448.59
2023-05-01T08:07:40.450Z,97442.66
2023-05-01T08:10:08.804Z,97452.97
2023-05-01T08:12:36.305Z,97446.81
2023-05-01T08:15:05.258Z,97454.25
2023-05-01T08:17:32.801Z,97456.91
2023-05-01T08:20:00.809Z,97449.97
2023-05-01T08:22:28.291Z,97451.38
2023-05-01T08:24:57.177Z,97458.78
2023-05-01T08:27:24.767Z,97447.91
2023-05-01T08:29:52.286Z,97453.00
2023-05-01T08:32:19.808Z,97451.19
2023-05-01T08:34:47.446Z,97449.63
2023-05-01T08:37:14.925Z,97450.16
2023-05-01T08:39:42.399Z,97447.59
2023-05-01T08:42:11.548Z,97442.34
2023-05-01T08:44:41.922Z,97442.88
2023-05-01T08:47:15.318Z,97443.06
2023-05-01T08:49:44.024Z,97440.25
2023-05-01T08:52:12.888Z,97433.25
2023-05-01T08:54:43.657Z,97439.34
2023-05-01T08:57:13.252Z,97429.31
2023-05-01T08:59:41.078Z,97423.75
2023-05-01T09:02:09.652Z,97431.72
2023-05-01T09:04:38.652Z,97428.53
2023-05-01T09:07:06.787Z,97428.97
2023-05-01T09:09:34.785Z,97438.94
2023-05-01T09:12:11.773Z,97432.13
2023-05-01T09:14:40.956Z,97434.56
2023-05-01T09:17:08.776Z,97440.81
2023-05-01T09:19:36.263Z,97427.28
2023-05-01T09:22:03.719Z,97431.75
2023-05-01T09:24:31.129Z,97431.09
2023-05-01T09:26:59.498Z,97432.13
2023-05-01T09:29:39.130Z,97423.91
2023-05-01T09:32:20.796Z,97431.53
2023-05-01T09:34:49.954Z,97428.72
2023-05-01T09:37:28.485Z,97428.28
2023-05-01T09:40:07.533Z,97431.66
2023-05-01T09:42:37.351Z,97435.13
2023-05-01T09:45:07.085Z,97433.66
2023-05-01T09:47:36.250Z,97427.16
2023-05-01T09:50:04.487Z,97424.00
2023-05-01T09:52:33.615Z,97422.13
2023-05-01T09:55:14.464Z,97420.78
2023-05-01T09:57:43.053Z,97418.50
2023-05-01T10:00:12.284Z,97428.47
2023-05-01T10:02:42.355Z,97427.88
2023-05-01T10:05:10.743Z,97429.69
2023-05-01T10:07:39.273Z,97426.44
2023-05-01T10:10:17.434Z,97419.91
2023-05-01T10:12:44.998Z,97425.31
2023-05-01T10:15:24.556Z,97420.78
2023-05-01T10:17:54.955Z,97418.16
2023-05-01T10:20:22.671Z,97418.78
2023-05-01T10:22:50.529Z,97414.31
2023-05-01T10:25:19.862Z,97409.41
2023-05-01T10:27:49.172Z,97417.59
2023-05-01T10:30:17.909Z,97408.94
2023-05-01T10:32:47.064Z,97410.41
2023-05-01T10:35:23.932Z,97419.66
2023-05-01T10:37:58.943Z,97407.59
2023-05-01T10:40:47.286Z,97410.06
2023-05-01T10:43:18.857Z,97407.19
2023-05-01T10:45:48.273Z,97401.22
2023-05-01T10:48:49.419Z,97402.63
2023-05-01T10:51:22.409Z,97412.38
2023-05-01T10:54:27.790Z,97397.53
2023-05-01T10:56:57.147Z,97399.19
2023-05-01T10:59:24.932Z,97392.56
2023-05-01T11:01:53.567Z,97390.66
2023-05-01T11:04:48.356Z,97386.00
2023-05-01T11:07:18.781Z,97384.59
2023-05-01T11:09:48.830Z,97385.38
2023-05-01T11:12:37.142Z,97383.34
2023-05-01T11:15:05.803Z,97385.69
2023-05-01T11:17:45.585Z,97377.72
2023-05-01T11:20:26.103Z,97375.78
2023-05-01T11:22:56.404Z,97385.94
2023-05-01T11:25:25.509Z,97376.84
2023-05-01T11:27:56.172Z,97374.47
2023-05-01T11:30:23.824Z,97380.63
2023-05-01T11:32:52.009Z,97371.91
2023-05-01T11:35:21.481Z,97380.19
2023-05-01T11:37:51.428Z,97371.66
2023-05-01T11:40:22.163Z,97366.69
2023-05-01T11:42:51.069Z,97368.34
2023-05-01T11:45:19.636Z,97365.25
2023-05-01T11:47:48.149Z,97369.63
2023-05-01T11:50:16.921Z,97365.06
2023-05-01T11:52:45.817Z,97369.16
2023-05-01T11:55:13.307Z,97363.66
2023-05-01T11:57:50.466Z,97361.13
2023-05-01T12:00:27.787Z,97359.22
2023-05-01T12:02:57.683Z,97367.84
2023-05-01T12:05:25.673Z,97371.31
2023-05-01T12:08:07.013Z,97363.47
2023-05-01T12:10:35.614Z,97362.72
2023-05-01T12:13:06.934Z,97366.16
2023-05-01T12:15:36.642Z,97368.44
2023-05-01T12:18:04.779Z,97358.22
2023-05-01T12:20:37.837Z,97369.94
2023-05-01T12:23:06.092Z,97366.97
2023-05-01T12:25:35.004Z,97366.16
2023-05-01T12:28:10.194Z,97363.66
2023-05-01T12:30:38.104Z,97364.97
2023-05-01T12:33:13.724Z,97368.84
2023-05-01T12:35:43.988Z,97360.63
2023-05-01T12:38:13.344Z,97368.03
2023-05-01T12:40:49.717Z,97364.78
2023-05-01T12:43:19.510Z,97361.97
2023-05-01T12:45:52.290Z,97361.72
2023-05-01T12:48:20.307Z,97355.03
2023-05-01T12:50:54.282Z,97360.25
2023-05-01T12:53:26.121Z,97364.31
2023-05-01T12:55:56.385Z,97364.16
2023-05-01T12:58:36.013Z,97355.97
2023-05-01T13:01:04.206Z,97355.97
2023-05-01T13:03:37.034Z,97363.41
2023-05-01T13:06:11.993Z,97360.38
2023-05-01T13:08:40.460Z,97359.56
2023-05-01T13:11:13.318Z,97353.75
2023-05-01T13:13:44.584Z,97358.72
2023-05-01T13:16:13.407Z,97351.00
2023-05-01T13:18:45.597Z,97352.66
2023-05-01T13:21:19.977Z,97352.38
2023-05-01T13:23:54.880Z,97350.63
2023-05-01T13:26:25.781Z,97354.72
2023-05-01T13:28:55.543Z,97346.22
2023-05-01T13:31:23.115Z,97346.78
2023-05-01T13:33:55.741Z,97340.28
2023-05-01T13:36:26.956Z,97332.84
2023-05-01T13:38:56.789Z,97339.16
2023-05-01T13:41:25.914Z,97336.13
2023-05-01T13:43:56.557Z,97336.97
2023-05-01T13:46:26.069Z,97338.88
2023-05-01T13:49:08.102Z,97331.97
2023-05-01T13:51:37.821Z,97332.00
2023-05-01T13:54:07.430Z,97333.09
2023-05-01T13:56:35.506Z,97339.16
2023-05-01T13:59:05.291Z,97346.34
2023-05-01T14:01:39.518Z,97336.09
2023-05-01T14:04:09.831Z,97346.03
2023-05-01T14:06:42.981Z,97343.84
2023-05-01T14:09:11.174Z,97347.41
2023-05-01T14:11:44.779Z,97349.06
2023-05-01T14:14:17.456Z,97342.13
2023-05-01T14:16:47.695Z,97339.94
2023-05-01T14:19:17.393Z,97345.16
2023-05-01T14:21:47.674Z,97344.50
2023-05-01T14:24:17.938Z,97341.97
2023-05-01T14:26:48.389Z,97347.16
2023-05-01T14:29:23.849Z,97355.13
2023-05-01T14:31:52.522Z,97351.38
2023-05-01T14:34:20.888Z,97356.06
2023-05-01T14:36:48.466Z,97353.28
2023-05-01T14:39:18.912Z,97356.47
2023-05-01T14:41:47.960Z,97359.09
2023-05-01T14:44:17.913Z,97358.19
2023-05-01T14:46:51.261Z,97366.16
2023-05-01T14:49:20.994Z,97361.25
2023-05-01T14:51:49.047Z,97365.66
2023-05-01T14:54:16.648Z,97359.75
2023-05-01T14:56:45.166Z,97369.44
2023-05-01T14:59:13.308Z,97364.56
2023-05-01T15:01:40.915Z,97367.78
2023-05-01T15:04:10.983Z,97369.22
2023-05-01T15:06:38.716Z,97374.91
2023-05-01T15:09:06.277Z,97375.22
2023-05-01T15:11:33.722Z,97379.66
2023-05-01T15:14:01.416Z,97380.13
2023-05-01T15:16:28.871Z,97381.28
2023-05-01T15:18:56.354Z,97387.28
2023-05-01T15:21:25.333Z,97387.09
2023-05-01T15:23:52.811Z,97384.53
2023-05-01T15:26:20.632Z,97394.53
2023-05-01T15:28:48.165Z,97380.91
2023-05-01T15:31:15.652Z,97397.38
2023-05-01T15:33:43.213Z,97406.72
2023-05-01T15:36:10.885Z,97401.00
2023-05-01T15:38:39.620Z,97401.66
2023-05-01T15:41:07.111Z,97402.84
2023-05-01T15:43:34.608Z,97402.97
2023-05-01T15:46:02.052Z,97400.16
2023-05-01T15:48:29.460Z,97402.28
2023-05-01T15:50:56.809Z,97399.47
2023-05-01T15:53:24.357Z,97404.53
2023-05-01T15:55:56.343Z,97404.06
2023-05-01T15:58:24.125Z,97402.41
2023-05-01T16:00:52.041Z,97406.94
2023-05-01T16:03:19.711Z,97408.47
2023-05-01T16:05:48.590Z,97407.66
2023-05-01T16:08:17.442Z,97419.72
2023-05-01T16:10:45.142Z,97416.28
2023-05-01T16:13:14.282Z,97417.22
2023-05-01T16:15:41.854Z,97423.19
2023-05-01T16:18:13.805Z,97418.91
2023-05-01T16:20:42.897Z,97426.75
2023-05-01T16:23:11.312Z,97417.34
2023-05-01T16:25:41.790Z,97416.91
2023-05-01T16:28:09.305Z,97417.72
2023-05-01T16:30:42.071Z,97410.72
2023-05-01T16:33:16.250Z,97418.91
2023-05-01T16:35:47.296Z,97422.47
2023-05-01T16:38:14.864Z,97423.28
2023-05-01T16:40:43.358Z,97415.94
2023-05-01T16:43:11.241Z,97419.84
2023-05-01T16:45:39.182Z,97422.81
2023-05-01T16:48:08.111Z,97431.00
2023-05-01T16:50:39.526Z,97429.81
2023-05-01T16:53:07.063Z,97425.97
2023-05-01T16:55:34.539Z,97415.41
2023-05-01T16:58:02.061Z,97421.59
2023-05-01T17:00:29.645Z,97429.00
2023-05-01T17:02:58.952Z,97422.50
2023-05-01T17:05:28.060Z,97430.06
2023-05-01T17:07:55.705Z,97435.78
2023-05-01T17:10:23.216Z,97441.84
2023-05-01T17:12:50.713Z,97439.09
2023-05-01T17:15:18.306Z,97436.72
2023-05-01T17:17:45.874Z,97437.31
2023-05-01T17:20:13.995Z,97436.81
2023-05-01T17:22:44.469Z,97446.03
2023-05-01T17:25:12.211Z,97448.09
2023-05-01T17:27:39.607Z,97449.94
2023-05-01T17:30:08.096Z,97450.91
2023-05-01T17:32:37.297Z,97459.84
2023-05-01T17:35:06.123Z,97463.09
2023-05-01T17:37:33.406Z,97462.88
2023-05-01T17:40:03.901Z,97467.81
2023-05-01T17:42:31.478Z,97466.38
2023-05-01T17:44:58.921Z,97483.69
2023-05-01T17:47:26.524Z,97477.91
2023-05-01T17:49:54.236Z,97483.13
2023-05-01T17:52:21.809Z,97483.56
2023-05-01T17:54:51.252Z,97483.16
2023-05-01T17:57:23.851Z,97485.41
2023-05-01T17:59:51.241Z,97488.03
2023-05-01T18:02:18.694Z,97486.94
2023-05-01T18:04:50.084Z,97491.09
2023-05-01T18:07:17.618Z,97483.41
2023-05-01T18:09:45.043Z,97492.97
2023-05-01T18:12:15.449Z,97494.38
2023-05-01T18:14:44.531Z,97495.78
2023-05-01T18:17:12.022Z,97501.13
2023-05-01T18:19:39.506Z,97499.63
2023-05-01T18:22:07.160Z,97501.03
2023-05-01T18:24:34.605Z,97499.00
2023-05-01T18:27:02.014Z,97503.41
2023-05-01T18:29:29.467Z,97496.06
2023-05-01T18:31:58.335Z,97509.44
2023-05-01T18:34:25.838Z,97504.22
2023-05-01T18:36:54.570Z,97506.97
2023-05-01T18:39:22.167Z,97509.56
2023-05-01T18:41:50.199Z,97506.22
2023-05-01T18:44:17.937Z,97517.34
2023-05-01T18:46:54.267Z,97518.03
2023-05-01T18:49:25.020Z,97520.78
2023-05-01T18:51:52.385Z,97526.44
2023-05-01T18:54:19.870Z,97527.16
2023-05-01T18:56:47.521Z,97531.88
2023-05-01T18:59:16.757Z,97544.06
2023-05-01T19:01:44.352Z,97544.53
2023-05-01T19:04:11.811Z,97548.31
2023-05-01T19:06:40.878Z,97551.75
2023-05-01T19:09:08.437Z,97556.78
2023-05-01T19:11:35.941Z,97559.78
2023-05-01T19:14:03.516Z,97556.22
2023-05-01T19:16:31.200Z,97556.91
2023-05-01T19:18:58.663Z,97569.69
2023-05-01T19:21:26.305Z,97572.28
2023-05-01T19:23:56.449Z,97571.28
2023-05-01T19:26:23.972Z,97576.72
2023-05-01T19:28:51.403Z,97580.59
2023-05-01T19:31:19.774Z,97582.09
2023-05-01T19:33:47.639Z,97578.97
2023-05-01T19:36:15.359Z,97581.34
2023-05-01T19:38:45.383Z,97592.06
2023-05-01T19:41:14.488Z,97582.69
2023-05-01T19:43:42.080Z,97589.03
2023-05-01T19:46:09.919Z,97589.94
2023-05-01T19:48:37.531Z,97595.38
2023-05-01T19:51:05.082Z,97598.09
2023-05-01T19:53:32.793Z,97595.84
2023-05-01T19:56:00.583Z,97604.00
2023-05-01T19:58:29.504Z,97601.06
2023-05-01T20:00:59.113Z,97608.03
2023-05-01T20:03:26.835Z,97603.72
2023-05-01T20:05:54.327Z,97609.59
2023-05-01T20:08:22.507Z,97602.94
2023-05-01T20:10:50.077Z,97608.81
2023-05-01T20:13:17.664Z,97617.63
2023-05-01T20:15:46.397Z,97618.09
2023-05-01T20:18:14.172Z,97616.19
2023-05-01T20:20:41.822Z,97620.59
2023-05-01T20:23:10.333Z,97627.94
2023-05-01T20:25:37.634Z,97625.78
2023-05-01T20:28:05.591Z,97632.91
2023-05-01T20:30:34.202Z,97639.84
2023-05-01T20:33:03.221Z,97636.50
2023-05-01T20:35:31.611Z,97633.63
2023-05-01T20:37:58.871Z,97628.84
2023-05-01T20:40:28.256Z,97639.16
2023-05-01T20:42:56.229Z,97637.50
2023-05-01T20:45:23.640Z,97644.84
2023-05-01T20:47:51.529Z,97641.97
2023-05-01T20:50:20.662Z,97649.31
2023-05-01T20:52:48.781Z,97654.19
2023-05-01T20:55:16.588Z,97651.50
2023-05-01T20:57:44.189Z,97654.66
2023-05-01T21:00:12.251Z,97659.28
2023-05-01T21:02:41.024Z,97663.88
2023-05-01T21:05:10.320Z,97660.16
2023-05-01T21:07:39.745Z,97662.28
2023-05-01T21:10:10.164Z,97659.16
2023-05-01T21:12:38.511Z,97653.13
2023-05-01T21:15:06.818Z,97660.06
2023-05-01T21:17:36.080Z,97655.25
2023-05-01T21:20:10.876Z,97664.47
2023-05-01T21:22:40.517Z,97666.41
2023-05-01T21:25:08.982Z,97667.66
2023-05-01T21:27:39.019Z,97669.94
2023-05-01T21:30:08.098Z,97676.59
2023-05-01T21:32:40.024Z,97676.84
2023-05-01T21:35:09.928Z,97677.25
2023-05-01T21:37:37.638Z,97675.56
2023-05-01T21:40:12.538Z,97674.13
2023-05-01T21:42:40.537Z,97673.94
2023-05-01T21:45:09.853Z,97680.59
2023-05-01T21:47:39.374Z,97682.91
2023-05-01T21:50:08.165Z,97681.66
2023-05-01T21:52:35.604Z,97683.34
2023-05-01T21:55:04.152Z,97684.81
2023-05-01T21:57:34.328Z,97687.91
2023-05-01T22:00:04.596Z,97698.78
2023-05-01T22:02:40.552Z,97695.44
2023-05-01T22:05:08.875Z,97692.91
2023-05-01T22:07:38.489Z,97690.19
2023-05-01T22:10:07.783Z,97698.13
2023-05-01T22:12:36.664Z,97697.50
2023-05-01T22:15:04.819Z,97697.69
2023-05-01T22:17:32.232Z,97693.94
2023-05-01T22:19:59.975Z,97696.63
2023-05-01T22:22:27.744Z,97699.34
2023-05-01T22:24:55.111Z,97704.56
2023-05-01T22:27:22.702Z,97698.53
2023-05-01T22:29:51.582Z,97689.31
2023-05-01T22:32:19.448Z,97692.03
2023-05-01T22:34:46.993Z,97711.22
2023-05-01T22:37:14.450Z,97705.97
2023-05-01T22:39:41.837Z,97707.44
2023-05-01T22:42:09.184Z,97713.50
2023-05-01T22:44:36.748Z,97718.69
2023-05-01T22:47:06.344Z,97718.69
2023-05-01T22:49:34.044Z,97721.81
2023-05-01T22:52:02.168Z,97723.28
2023-05-01T22:54:29.638Z,97725.75
2023-05-01T22:56:57.038Z,97724.28
2023-05-01T22:59:24.482Z,97719.47
2023-05-01T23:01:52.310Z,97725.06
2023-05-01T23:04:21.514Z,97729.44
2023-05-01T23:06:49.083Z,97720.41
2023-05-01T23:09:16.645Z,97728.69
2023-05-01T23:11:47.473Z,97729.72
2023-05-01T23:14:16.922Z,97737.38
2023-05-01T23:16:44.609Z,97744.66
2023-05-01T23:19:20.250Z,97727.69
2023-05-01T23:21:49.944Z,97733.94
2023-05-01T23:24:18.911Z,97741.81
2023-05-01T23:26:46.543Z,97730.56
2023-05-01T23:29:16.054Z,97738.03
2023-05-01T23:31:45.616Z,97734.91
2023-05-01T23:34:15.968Z,97733.03
2023-05-01T23:36:45.306Z,97742.19
2023-05-01T23:39:14.506Z,97734.66
2023-05-01T23:41:42.769Z,97735.03
2023-05-01T23:44:11.180Z,97740.78
2023-05-01T23:46:38.915Z,97738.25
2023-05-01T23:49:06.548Z,97735.91
2023-05-01T23:51:34.140Z,97728.38
2023-05-01T23:54:03.135Z,97735.59
2023-05-01T23:56:32.478Z,97738.78
2023-05-01T23:58:59.988Z,97736.66
